Terminal Aerodrome Forecast
Issued by NWS

Home | Current Version | Previous Version | Text Only | Print | Product List | Glossary On
Versions: 1 2 3 4 5 6 7 8 9 10 11 12 13 14
000
FTUS46 KSEW 302300
TAFCLM
TAF
KCLM 302320Z 3100/3124 31011KT P6SM SKC
     FM310200 29014KT P6SM SKC
     FM310800 29005KT P6SM SKC
     FM312000 30009KT P6SM SKC=

USA.gov is the U.S. government's official web portal to all federal, state and local government web resources and services.